Latest Weather Observations for Dubbo

IDN60801

Issued at 11:02 am EDT Thursday 21 November 2019 (issued every 10 minutes, with the page automatically refreshed every 10 minutes)

About weather observations | Map of weather stations | Latest weather observations for NSW | Other Formats
Station Details ID: 065070 Name: DUBBO AIRPORT AWS Lat: -32.22 Lon: 148.58 Height: 284.0 m
Data from the previous 72 hours. | See also: Recent months at Dubbo
Date/Time
EDT
Temp
°C
App
Temp
°C
Dew
Point
°C
Rel
Hum
%
Delta-T
°C
Wind Press
QNH
hPa
Press
MSL
hPa
Rain since
9am
mm
Dir  Spd
km/h
Gust
km/h
Spd
kts
Gust
kts
21/11:00am 31.3 28.4 9.5 26 12.4 N 15 20 8 11 1014.7 1013.6 0.0
21/10:55am 31.7 29.0 10.4 27 12.4 N 15 24 8 13 1014.7 1013.6 0.0
21/10:30am 29.1 27.3 12.1 35 10.0 ENE 13 19 7 10 1014.8 1013.7 0.0
21/10:00am 27.0 24.6 12.6 41 8.5 E 17 22 9 12 1015.2 1014.1 0.0
21/09:30am 24.9 22.5 12.8 47 7.1 ENE 17 22 9 12 1015.5 1014.4 0.0
21/09:00am 23.1 20.9 13.3 54 5.7 ENE 17 22 9 12 1016.0 1014.9 0.0
21/08:30am 21.6 18.0 13.0 58 5.0 E 24 30 13 16 1015.8 1014.8 0.0
21/08:00am 19.8 15.5 13.3 66 3.7 E 28 33 15 18 1015.8 1014.8 0.0
21/07:30am 18.7 14.0 13.1 70 3.2 E 30 35 16 19 1015.7 1014.7 0.0
21/07:00am 17.9 14.3 13.0 73 2.8 E 24 30 13 16 1015.6 1014.5 0.0
21/06:30am 17.6 14.7 12.9 74 2.7 E 20 32 11 17 1015.2 1014.1 0.0
21/06:00am 17.7 12.4 12.6 72 2.9 E 32 41 17 22 1014.5 1013.4 0.0
21/05:30am 17.9 12.4 12.6 71 3.0 E 33 44 18 24 1014.3 1013.2 0.0
21/05:00am 18.1 12.6 12.5 70 3.2 E 33 44 18 24 1013.9 1012.8 0.0
21/04:30am 18.4 13.1 12.4 68 3.4 E 32 41 17 22 1014.0 1012.9 0.0
21/04:00am 18.8 13.4 12.3 66 3.7 E 32 43 17 23 1014.0 1012.9 0.0
21/03:30am 19.2 13.2 12.2 64 3.9 E 35 46 19 25 1014.1 1013.0 0.0
21/03:00am 19.5 15.6 12.0 62 4.2 E 24 33 13 18 1014.4 1013.3 0.0
21/02:30am 20.0 16.8 12.0 60 4.5 E 20 30 11 16 1014.6 1013.5 0.0
21/02:00am 20.7 17.4 11.6 56 5.1 E 20 28 11 15 1014.7 1013.6 0.0
21/01:30am 21.3 17.2 11.3 53 5.6 E 24 37 13 20 1014.6 1013.5 0.0
21/01:00am 22.0 17.0 11.1 50 6.1 E 28 39 15 21 1014.7 1013.6 0.0
21/12:30am 22.8 18.3 11.5 49 6.4 E 26 37 14 20 1014.8 1013.7 0.0
21/12:00am 24.0 18.8 11.7 46 7.0 E 30 39 16 21 1014.7 1013.6 0.0
 
Date/Time
EDT
Temp
°C
App
Temp
°C
Dew
Point
°C
Rel
Hum
%
Delta-T
°C
Wind Press
QNH
hPa
Press
MSL
hPa
Rain since
9am
mm
Dir  Spd
km/h
Gust
km/h
Spd
kts
Gust
kts
20/11:30pm 24.6 19.6 10.8 42 7.8 E 28 39 15 21 1014.5 1013.4 0.0
20/11:00pm 25.4 20.4 9.7 37 8.7 E 26 35 14 19 1014.2 1013.1 0.0
20/10:30pm 26.6 21.1 9.0 33 9.7 ENE 28 39 15 21 1014.0 1012.9 0.0
20/10:00pm 27.5 22.2 8.4 30 10.5 E 26 35 14 19 1013.7 1012.6 0.0
20/09:30pm 28.3 23.4 7.0 26 11.5 E 22 30 12 16 1013.4 1012.3 0.0
20/09:00pm 29.1 23.9 2.4 18 13.4 E 19 24 10 13 1012.8 1011.7 0.0
20/08:30pm 28.1 23.9 -0.9 15 13.6 SE 11 13 6 7 1012.0 1010.9 0.0
20/08:00pm 30.3 26.3 -2.2 12 15.2 E 9 9 5 5 1011.8 1010.7 0.0
20/07:30pm 31.6 28.0 -2.4 11 16.0 E 7 9 4 5 1011.5 1010.4 0.0
20/07:00pm 33.1 29.1 -2.6 10 16.9 E 9 11 5 6 1011.2 1010.1 0.0
20/06:30pm 35.0 30.2 -2.6 9 18.0 E 13 19 7 10 1010.9 1009.8 0.0
20/06:00pm 35.7 31.0 -2.0 9 18.4 SE 13 19 7 10 1010.7 1009.6 0.0
20/05:30pm 35.8 31.1 -2.0 9 18.4 E 13 20 7 11 1010.6 1009.5 0.0
20/05:00pm 35.9 30.4 -1.9 9 18.5 ESE 17 22 9 12 1010.8 1009.7 0.0
20/04:30pm 35.6 31.0 -0.7 10 18.0 E 13 24 7 13 1010.9 1009.8 0.0
20/04:00pm 35.8 30.9 -0.5 10 18.1 SE 15 24 8 13 1011.1 1010.0 0.0
20/03:30pm 35.1 29.4 -1.1 10 17.8 E 19 28 10 15 1011.4 1010.3 0.0
20/03:00pm 35.5 31.7 -0.8 10 18.0 SSE 9 22 5 12 1011.7 1010.6 0.0
20/02:30pm 34.9 29.9 -1.2 10 17.7 S 15 22 8 12 1012.0 1010.9 0.0
20/02:00pm 33.9 28.6 -0.7 11 17.0 SE 17 28 9 15 1012.5 1011.3 0.0
20/01:30pm 33.9 28.2 -0.7 11 17.0 SE 19 28 10 15 1012.8 1011.7 0.0
20/01:00pm 34.6 29.6 1.1 12 17.0 SSE 17 35 9 19 1013.2 1012.1 0.0
20/12:30pm 32.6 28.7 3.5 16 15.2 ESE 13 24 7 13 1013.6 1012.5 0.0
20/12:00pm 31.0 27.3 6.1 21 13.4 ENE 15 24 8 13 1013.9 1012.8 0.0
20/11:57am 31.5 27.5 6.5 21 13.6 ENE 17 24 9 13 1013.9 1012.8 0.0
20/11:30am 31.4 27.8 8.4 24 12.9 ENE 17 30 9 16 1014.1 1013.0 0.0
20/11:00am 29.2 25.3 8.8 28 11.4 ENE 19 28 10 15 1014.4 1013.3 0.0
20/10:30am 27.9 24.3 9.7 32 10.3 E 19 26 10 14 1014.7 1013.6 0.0
20/10:00am 26.5 22.0 10.2 36 9.2 E 24 32 13 17 1014.6 1013.5 0.0
20/09:30am 25.4 20.9 10.1 38 8.6 ENE 24 35 13 19 1014.7 1013.6 0.0
20/09:00am 24.1 19.4 10.7 43 7.5 E 26 33 14 18 1014.8 1013.7 0.0
20/08:30am 22.8 17.6 10.3 45 6.9 E 28 35 15 19 1014.7 1013.6 0.0
20/08:00am 21.8 16.9 10.0 47 6.5 E 26 35 14 19 1014.6 1013.5 0.0
20/07:30am 20.9 15.6 8.5 45 6.6 E 26 33 14 18 1014.2 1013.1 0.0
20/07:00am 20.2 14.9 3.0 32 8.2 E 20 30 11 16 1014.1 1013.0 0.0
20/06:52am 19.8 14.0 2.2 31 8.2 E 22 32 12 17 1014.0 1012.9 0.0
20/06:30am 18.1 12.8 1.6 33 7.5 E 19 32 10 17 1014.0 1012.9 0.0
20/06:00am 15.3 9.9 1.4 39 6.2 ESE 19 28 10 15 1013.6 1012.5 0.0
20/05:30am 15.6 11.7 -1.4 31 7.1 SE 9 11 5 6 1012.9 1011.8 0.0
20/05:00am 16.9 14.9 -0.3 31 7.5 CALM 0 0 0 0 1012.5 1011.3 0.0
20/04:30am 16.8 14.5 -2.3 27 7.9 CALM 0 0 0 0 1012.1 1011.0 0.0
20/04:00am 18.2 16.0 -1.6 26 8.5 CALM 0 0 0 0 1011.8 1010.7 0.0
20/03:30am 17.4 15.2 -1.3 28 8.0 CALM 0 2 0 1 1011.8 1010.7 0.0
20/03:00am 17.1 13.6 -1.1 29 7.8 E 7 11 4 6 1011.8 1010.7 0.0
20/02:30am 19.5 17.1 -3.4 21 9.5 CALM 0 0 0 0 1011.6 1010.5 0.0
20/02:00am 21.4 19.2 -1.8 21 10.2 CALM 0 0 0 0 1011.7 1010.6 0.0
20/01:30am 20.8 17.4 -1.7 22 9.8 NE 6 7 3 4 1012.0 1010.9 0.0
20/01:00am 22.0 18.4 -3.4 18 10.8 ENE 6 9 3 5 1012.3 1011.1 0.0
20/12:30am 21.7 18.4 -1.6 21 10.3 ENE 6 7 3 4 1012.3 1011.1 0.0
20/12:00am 24.7 20.3 -5.5 13 12.7 S 9 13 5 7 1012.3 1011.1 0.0
 
Date/Time
EDT
Temp
°C
App
Temp
°C
Dew
Point
°C
Rel
Hum
%
Delta-T
°C
Wind Press
QNH
hPa
Press
MSL
hPa
Rain since
9am
mm
Dir  Spd
km/h
Gust
km/h
Spd
kts
Gust
kts
19/11:30pm 27.6 22.1 -5.5 11 14.3 SSW 15 20 8 11 1012.1 1011.0 0.0
19/11:00pm 27.7 22.6 -5.4 11 14.3 SSW 13 17 7 9 1012.0 1010.9 0.0
19/10:30pm 27.2 22.5 -4.6 12 13.9 SSW 11 15 6 8 1012.0 1010.9 0.0
19/10:00pm 26.8 21.8 -3.9 13 13.5 SW 13 13 7 7 1011.7 1010.6 0.0
19/09:30pm 28.7 24.2 -3.5 12 14.5 SW 11 11 6 6 1011.3 1010.2 0.0
19/09:00pm 28.2 23.6 -3.9 12 14.3 SW 11 13 6 7 1011.0 1009.9 0.0
19/08:30pm 30.1 26.2 -4.8 10 15.6 W 7 9 4 5 1010.7 1009.6 0.0
19/08:00pm 31.4 26.7 -5.2 9 16.4 WNW 11 13 6 7 1010.5 1009.4 0.0
19/07:30pm 33.6 27.7 -5.2 8 17.7 W 17 20 9 11 1010.3 1009.2 0.0
19/07:00pm 34.9 27.4 -4.2 8 18.3 WSW 26 33 14 18 1010.0 1008.9 0.0
19/06:30pm 35.5 27.5 -5.5 7 18.8 W 28 39 15 21 1009.7 1008.6 0.0
19/06:00pm 36.0 28.8 -5.2 7 19.1 W 24 32 13 17 1009.8 1008.7 0.0
19/05:30pm 36.4 28.9 -4.9 7 19.3 W 26 39 14 21 1009.9 1008.8 0.0
19/05:00pm 35.8 28.8 -3.5 8 18.7 WSW 24 37 13 20 1010.1 1009.0 0.0
19/04:30pm 36.0 28.6 -3.4 8 18.8 WSW 26 37 14 20 1010.5 1009.4 0.0
19/04:00pm 35.5 27.7 -3.8 8 18.6 WSW 28 46 15 25 1010.7 1009.6 0.0
19/03:53pm 35.2 27.4 -4.0 8 18.4 WSW 28 46 15 25 1010.9 1009.8 0.0
19/03:30pm 35.8 28.8 -3.5 8 18.7 W 24 44 13 24 1011.1 1010.0 0.0
19/03:04pm 36.7 29.4 -2.9 8 19.1 W 26 56 14 30 1011.4 1010.3 0.0
19/03:00pm 34.9 28.8 -4.2 8 18.3 W 19 32 10 17 1011.5 1010.4 0.0
19/02:30pm 34.7 28.2 -2.8 9 17.9 WNW 22 35 12 19 1012.1 1011.0 0.0
19/02:00pm 34.1 28.8 -3.2 9 17.6 W 15 32 8 17 1012.4 1011.2 0.0
19/01:30pm 34.5 27.9 -2.9 9 17.8 WNW 22 37 12 20 1012.9 1011.8 0.0
19/01:00pm 33.8 27.6 -3.5 9 17.5 WNW 20 30 11 16 1013.5 1012.4 0.0
19/12:30pm 32.8 26.6 -2.8 10 16.8 NW 20 39 11 21 1013.8 1012.7 0.0
19/12:00pm 31.9 26.6 -3.5 10 16.4 W 15 24 8 13 1014.2 1013.1 0.0
19/11:30am 31.6 25.9 -3.7 10 16.2 WNW 17 28 9 15 1014.7 1013.6 0.0
19/11:00am 31.2 25.5 -4.0 10 16.0 W 17 24 9 13 1014.9 1013.8 0.0
19/10:30am 29.9 25.1 -2.6 12 15.0 WNW 13 19 7 10 1015.3 1014.2 0.0
19/10:00am 28.0 23.1 -3.0 13 14.0 NNW 13 20 7 11 1015.5 1014.4 0.0
19/09:30am 26.4 22.8 -2.3 15 13.0 NNW 7 11 4 6 1015.7 1014.7 0.0
19/09:00am 24.7 21.8 -1.2 18 11.8 NE 4 9 2 5 1015.8 1014.8 0.0
19/08:30am 22.4 19.1 -1.6 20 10.6 ENE 6 9 3 5 1015.8 1014.8 0.0
19/08:00am 20.8 17.5 0.1 25 9.4 E 7 9 4 5 1015.7 1014.7 0.0
19/07:30am 17.8 14.0 -0.9 28 8.1 ESE 9 11 5 6 1015.6 1014.5 0.0
19/07:00am 16.2 11.9 -1.4 30 7.4 SE 11 13 6 7 1015.5 1014.4 0.0
19/06:30am 13.7 9.9 -0.7 37 6.0 SE 9 11 5 6 1015.3 1014.2 0.0
19/06:00am 11.5 8.2 -0.9 42 5.0 ESE 6 7 3 4 1015.1 1014.0 0.0
19/05:30am 11.0 7.7 0.1 47 4.5 E 7 9 4 5 1014.7 1013.6 0.0
19/05:00am 10.8 6.9 -1.3 43 4.8 ESE 9 11 5 6 1014.4 1013.3 0.0
19/04:30am 12.6 8.2 -2.4 35 6.0 SSE 11 13 6 7 1014.4 1013.3 0.0
19/04:00am 13.1 11.0 -0.9 38 5.8 CALM 0 0 0 0 1014.4 1013.3 0.0
19/03:30am 14.0 11.9 -0.8 36 6.2 CALM 0 0 0 0 1014.3 1013.2 0.0
19/03:00am 14.4 11.7 -2.1 32 6.7 ENE 2 6 1 3 1014.4 1013.3 0.0
19/02:30am 15.3 11.7 -2.2 30 7.2 E 7 9 4 5 1014.6 1013.5 0.0
19/02:00am 16.1 14.0 -1.0 31 7.3 CALM 0 0 0 0 1014.9 1013.8 0.0
19/01:30am 16.4 14.1 -2.6 27 7.8 CALM 0 0 0 0 1015.1 1014.0 0.0
19/01:00am 16.7 14.4 -2.4 27 7.9 CALM 0 0 0 0 1015.4 1014.3 0.0
19/12:30am 17.1 14.8 -2.0 27 8.0 CALM 0 0 0 0 1015.6 1014.5 0.0
19/12:00am 15.8 12.1 -2.6 28 7.5 NNE 7 9 4 5 1016.0 1014.9 0.0
 
Date/Time
EDT
Temp
°C
App
Temp
°C
Dew
Point
°C
Rel
Hum
%
Delta-T
°C
Wind Press
QNH
hPa
Press
MSL
hPa
Rain since
9am
mm
Dir  Spd
km/h
Gust
km/h
Spd
kts
Gust
kts
18/11:30pm 20.8 16.3 -3.6 19 10.3 SW 11 11 6 6 1016.0 1014.9 0.0
18/11:00pm 21.0 17.1 -4.2 18 10.5 SW 7 9 4 5 1016.0 1014.9 0.0
18/10:30pm 20.7 16.5 -3.7 19 10.2 WSW 9 9 5 5 1016.0 1014.9 0.0
18/10:00pm 21.5 17.7 -3.8 18 10.7 W 7 11 4 6 1015.7 1014.7 0.0
18/09:30pm 21.9 18.2 -4.2 17 11.0 SW 6 7 3 4 1015.5 1014.4 0.0
18/09:00pm 23.2 18.9 -4.8 15 11.7 SW 9 11 5 6 1015.2 1014.1 0.0
18/08:30pm 23.2 18.5 -4.8 15 11.8 SW 11 13 6 7 1015.0 1013.9 0.0
18/08:00pm 24.6 20.3 -4.6 14 12.5 SW 9 11 5 6 1014.7 1013.6 0.0
18/07:30pm 26.4 21.3 -5.3 12 13.6 SW 13 17 7 9 1014.6 1013.5 0.0
18/07:00pm 27.9 22.9 -4.1 12 14.2 SSW 13 19 7 10 1014.4 1013.3 0.0
18/06:30pm 28.8 23.7 -2.3 13 14.3 SW 15 20 8 11 1014.4 1013.3 0.0
18/06:00pm 28.7 24.3 -2.4 13 14.3 SSW 11 22 6 12 1014.2 1013.1 0.0
18/05:30pm 29.0 23.9 -2.2 13 14.4 SSW 15 24 8 13 1014.4 1013.3 0.0
18/05:00pm 28.8 24.0 -2.3 13 14.3 S 13 20 7 11 1014.5 1013.4 0.0
18/04:30pm 29.9 24.1 -1.5 13 14.8 WSW 19 28 10 15 1014.7 1013.6 0.0
18/04:00pm 29.8 24.0 -1.5 13 14.7 WSW 19 32 10 17 1015.0 1013.9 0.0
18/03:30pm 29.3 23.8 -1.9 13 14.5 WSW 17 30 9 16 1015.4 1014.3 0.0
18/03:00pm 28.9 24.0 -0.3 15 13.9 WNW 15 26 8 14 1015.8 1014.8 0.0
18/02:30pm 27.8 23.4 0.5 17 13.1 W 13 26 7 14 1016.2 1015.1 0.0
18/02:00pm 28.1 23.9 1.6 18 13.0 ESE 13 30 7 16 1016.6 1015.5 0.0
18/01:30pm 27.3 23.6 2.4 20 12.3 SE 11 22 6 12 1017.0 1015.9 0.0
18/01:00pm 26.4 22.8 0.9 19 12.2 SSW 9 17 5 9 1017.6 1016.5 0.0
18/12:30pm 25.9 22.0 1.2 20 11.9 WSW 11 22 6 12 1017.9 1016.8 0.0
18/12:00pm 25.2 21.5 4.3 26 10.5 WSW 13 26 7 14 1018.6 1017.5 0.0
18/11:30am 24.9 22.1 5.2 28 10.1 W 9 19 5 10 1018.9 1017.9 0.0

Other formats

Comma delimited format used in spreadsheet applications
http://www.bom.gov.au/fwo/IDN60801/IDN60801.95719.axf

JavaScript Object Notation format (JSON) in row-major order
http://www.bom.gov.au/fwo/IDN60801/IDN60801.95719.json

Data quality

Most of these data are generated automatically and are frequently updated. Quality checks on data are not normally performed. It is possible for incorrect values to appear. Refer to information at About Latest Weather Observations and please check the disclaimer before using these data.